Time;durP1;ratioP1;P1;durP2;ratioP2;P2;SDS_P1;SDS_P2;PMS_P1;PMS_P2;Temp;Humidity;BMP_temperature;BMP_pressure;BME280_temperature;BME280_humidity;BME280_pressure;Samples;Min_cycle;Max_cycle;Signal;HPM_P1;HPM_P2
2023/07/19 00:01:09;;;;;;;3.10;2.87;;;24.20;68.40;23.60;96292.00;;;;5081761;28;20210;-83
2023/07/19 00:03:37;;;;;;;2.67;2.47;;;24.20;68.40;23.60;96299.00;;;;5081913;28;20290;-83
2023/07/19 00:06:04;;;;;;;3.40;3.10;;;24.10;68.50;23.60;96294.00;;;;5072060;28;20703;-83
2023/07/19 00:08:33;;;;;;;4.03;3.50;;;24.10;68.50;23.60;96286.00;;;;5074158;28;20252;-83
2023/07/19 00:11:00;;;;;;;3.67;3.30;;;24.10;68.50;23.60;96276.00;;;;5078112;28;20219;-83
2023/07/19 00:13:28;;;;;;;3.43;3.10;;;24.10;68.40;23.60;96278.00;;;;5072798;28;20219;-83
2023/07/19 00:15:57;;;;;;;3.50;3.20;;;24.10;68.50;23.60;96268.00;;;;5071756;28;20302;-83
2023/07/19 00:18:24;;;;;;;3.20;2.90;;;24.10;68.60;23.60;96269.00;;;;5064256;28;20207;-83
2023/07/19 00:20:51;;;;;;;4.93;3.17;;;24.10;68.60;23.60;96268.00;;;;5071742;28;20299;-83
2023/07/19 00:23:19;;;;;;;4.23;3.47;;;24.10;68.60;23.60;96267.00;;;;5083836;28;20249;-83
2023/07/19 00:25:46;;;;;;;4.23;3.37;;;24.10;68.70;23.60;96273.00;;;;5076771;28;20230;-83
2023/07/19 00:28:13;;;;;;;4.93;3.60;;;24.10;68.50;23.60;96273.00;;;;5074617;28;20282;-83
2023/07/19 00:30:41;;;;;;;4.10;3.00;;;24.10;68.50;23.60;96272.00;;;;5071147;28;20304;-82
2023/07/19 00:33:10;;;;;;;6.13;3.53;;;24.10;68.50;23.60;96262.00;;;;5081078;28;20664;-82
2023/07/19 00:35:41;;;;;;;5.07;3.97;;;24.10;68.70;23.60;96253.00;;;;5072351;28;20209;-82
2023/07/19 00:38:08;;;;;;;6.40;3.70;;;24.00;68.70;23.60;96268.00;;;;5081061;28;20209;-82
2023/07/19 00:40:36;;;;;;;4.67;3.30;;;24.00;68.50;23.60;96267.00;;;;5078393;28;20238;-83
2023/07/19 00:43:10;;;;;;;5.03;3.70;;;24.00;68.60;23.50;96260.00;;;;5077352;28;20199;-83
2023/07/19 00:45:43;;;;;;;4.67;3.00;;;24.00;69.30;23.50;96260.00;;;;5076299;28;20222;-83
2023/07/19 00:48:11;;;;;;;3.97;3.67;;;24.00;69.10;23.40;96265.00;;;;5091465;28;20197;-82
2023/07/19 00:50:39;;;;;;;4.77;3.00;;;24.00;69.30;23.40;96256.00;;;;5082373;28;20287;-82
2023/07/19 00:53:06;;;;;;;3.83;3.33;;;24.00;69.30;23.40;96255.00;;;;5080775;28;20235;-83
2023/07/19 00:55:33;;;;;;;4.30;3.23;;;23.90;69.40;23.40;96250.00;;;;5080711;28;20283;-82
2023/07/19 00:58:00;;;;;;;4.80;3.53;;;23.90;69.50;23.40;96248.00;;;;5066291;28;20203;-83
2023/07/19 01:00:29;;;;;;;3.90;3.30;;;23.90;69.50;23.40;96255.00;;;;5079234;28;20299;-83
2023/07/19 01:02:57;;;;;;;6.07;3.60;;;23.90;69.60;23.40;96254.00;;;;5087694;28;20278;-83
2023/07/19 01:05:26;;;;;;;3.83;3.53;;;23.90;69.70;23.40;96250.00;;;;5077395;28;20199;-82
2023/07/19 01:07:55;;;;;;;3.67;3.37;;;23.90;69.90;23.40;96252.00;;;;5074816;28;20206;-82
2023/07/19 01:10:23;;;;;;;3.50;3.20;;;23.90;69.90;23.40;96254.00;;;;5075421;28;20259;-83
2023/07/19 01:13:04;;;;;;;4.07;3.30;;;23.90;70.00;23.40;96253.00;;;;5082602;28;20771;-83
2023/07/19 01:15:31;;;;;;;4.30;3.57;;;23.90;70.60;23.40;96248.00;;;;5067036;28;20203;-83
2023/07/19 01:17:59;;;;;;;3.53;3.10;;;23.90;69.90;23.40;96256.00;;;;5071002;28;20676;-83
2023/07/19 01:20:28;;;;;;;5.27;3.47;;;23.90;70.00;23.40;96248.00;;;;5071196;28;20204;-83
2023/07/19 01:22:57;;;;;;;4.03;3.00;;;23.90;70.10;23.50;96247.00;;;;5071755;28;20204;-83
2023/07/19 01:25:24;;;;;;;5.63;4.27;;;23.90;70.00;23.50;96253.00;;;;5072686;28;20204;-83
2023/07/19 01:27:52;;;;;;;4.17;3.20;;;23.90;70.00;23.50;96248.00;;;;5074935;28;20439;-83
2023/07/19 01:30:20;;;;;;;3.40;2.70;;;23.90;70.00;23.50;96252.00;;;;5074642;28;20227;-83
2023/07/19 01:32:47;;;;;;;4.13;3.60;;;23.90;70.10;23.50;96239.00;;;;5074005;28;20294;-83
2023/07/19 01:35:16;;;;;;;3.70;3.37;;;23.90;70.00;23.50;96248.00;;;;5074619;28;20210;-83
2023/07/19 01:37:43;;;;;;;3.63;3.33;;;23.90;70.00;23.50;96248.00;;;;5075813;28;20585;-83
2023/07/19 01:40:13;;;;;;;4.33;3.27;;;23.90;70.00;23.50;96254.00;;;;5075960;28;20289;-83
2023/07/19 01:42:41;;;;;;;7.10;4.13;;;23.90;70.00;23.50;96249.00;;;;5074846;28;20209;-83
2023/07/19 01:45:09;;;;;;;6.57;3.40;;;23.90;69.70;23.40;96252.00;;;;5075190;28;20199;-83
2023/07/19 01:47:36;;;;;;;4.27;3.87;;;23.90;69.60;23.40;96255.00;;;;5081199;28;20305;-83
2023/07/19 01:50:04;;;;;;;4.37;3.83;;;23.90;69.50;23.40;96255.00;;;;5079830;28;20218;-83
2023/07/19 01:52:31;;;;;;;4.30;3.73;;;23.90;69.70;23.40;96256.00;;;;5068542;28;20226;-83
2023/07/19 01:54:59;;;;;;;4.50;3.87;;;23.90;69.80;23.40;96259.00;;;;5078445;28;20217;-82
2023/07/19 01:57:28;;;;;;;4.07;3.50;;;23.90;69.80;23.40;96259.00;;;;5082686;28;20750;-83
2023/07/19 01:59:55;;;;;;;5.43;3.70;;;23.90;70.00;23.40;96248.00;;;;5056756;28;20193;-82
2023/07/19 02:02:22;;;;;;;3.90;3.00;;;23.90;70.00;23.40;96255.00;;;;5072749;28;20281;-82
2023/07/19 02:04:50;;;;;;;4.87;3.10;;;23.90;70.00;23.50;96252.00;;;;5054415;28;20257;-82
2023/07/19 02:07:17;;;;;;;3.87;3.57;;;23.90;70.00;23.50;96256.00;;;;5073545;28;20219;-83
2023/07/19 02:09:45;;;;;;;3.47;3.17;;;23.90;69.90;23.50;96251.00;;;;5075987;28;20589;-83
2023/07/19 02:12:13;;;;;;;3.70;3.33;;;23.90;69.80;23.50;96257.00;;;;5074780;28;20276;-82
2023/07/19 02:14:42;;;;;;;7.00;3.63;;;23.90;69.80;23.50;96264.00;;;;5072903;28;20209;-83
2023/07/19 02:17:10;;;;;;;4.57;3.20;;;23.90;69.90;23.50;96267.00;;;;5072822;28;20229;-82
2023/07/19 02:19:37;;;;;;;4.33;3.43;;;23.90;69.80;23.50;96266.00;;;;5072666;28;20605;-82
2023/07/19 02:22:05;;;;;;;4.33;3.50;;;23.90;69.80;23.50;96266.00;;;;5074317;28;20728;-83
2023/07/19 02:24:32;;;;;;;3.40;2.90;;;23.90;69.80;23.50;96262.00;;;;5081145;28;20684;-83
2023/07/19 02:26:59;;;;;;;3.50;3.10;;;23.90;69.80;23.50;96267.00;;;;5086240;28;20610;-82
2023/07/19 02:29:26;;;;;;;5.37;3.50;;;23.90;69.80;23.50;96272.00;;;;5088376;28;20190;-82
2023/07/19 02:31:56;;;;;;;5.43;3.47;;;23.90;69.90;23.50;96267.00;;;;5075522;28;20222;-82
2023/07/19 02:34:23;;;;;;;3.80;3.30;;;23.90;70.00;23.40;96264.00;;;;5076282;28;20197;-82
2023/07/19 02:36:51;;;;;;;3.53;3.23;;;23.90;69.90;23.40;96260.00;;;;5084285;28;20226;-82
2023/07/19 02:39:20;;;;;;;4.53;3.87;;;23.90;69.80;23.40;96247.00;;;;5088800;28;20541;-82
2023/07/19 02:41:47;;;;;;;4.13;3.37;;;23.90;69.70;23.40;96250.00;;;;5075938;28;20232;-82
2023/07/19 02:44:15;;;;;;;3.60;3.10;;;23.90;69.90;23.40;96261.00;;;;5073987;28;20281;-83
2023/07/19 02:46:42;;;;;;;3.37;3.07;;;23.90;70.00;23.40;96269.00;;;;5081752;28;20228;-82
2023/07/19 02:49:13;;;;;;;2.83;2.63;;;23.90;70.00;23.40;96267.00;;;;5091404;28;20196;-82
2023/07/19 02:51:40;;;;;;;4.33;3.37;;;23.90;70.20;23.40;96263.00;;;;5075689;28;20314;-82
2023/07/19 02:54:09;;;;;;;4.27;3.47;;;23.90;70.20;23.40;96273.00;;;;5082656;28;20202;-83
2023/07/19 02:56:38;;;;;;;3.57;3.17;;;23.90;70.20;23.40;96285.00;;;;5082859;28;20309;-82
2023/07/19 02:59:05;;;;;;;3.40;3.20;;;23.90;70.20;23.40;96278.00;;;;5074443;28;20200;-83
2023/07/19 03:01:32;;;;;;;4.23;3.70;;;23.90;70.30;23.40;96277.00;;;;5056403;28;20195;-82
2023/07/19 03:04:02;;;;;;;3.57;3.27;;;23.90;70.40;23.40;96281.00;;;;5085901;28;20218;-82
2023/07/19 03:06:32;;;;;;;4.03;3.20;;;23.90;70.50;23.40;96278.00;;;;5070042;28;20222;-82
2023/07/19 03:08:59;;;;;;;4.20;3.67;;;23.90;70.50;23.40;96255.00;;;;5090347;28;20285;-82
2023/07/19 03:11:26;;;;;;;5.37;3.23;;;23.90;70.50;23.40;96253.00;;;;5074649;28;20647;-82
2023/07/19 03:13:54;;;;;;;4.57;3.07;;;23.90;70.50;23.40;96252.00;;;;5072889;28;20285;-82
2023/07/19 03:16:21;;;;;;;4.63;3.40;;;23.90;70.50;23.40;96255.00;;;;5089414;28;20247;-83
2023/07/19 03:18:49;;;;;;;3.60;3.30;;;23.90;70.40;23.40;96238.00;;;;5089266;28;20278;-82
2023/07/19 03:21:16;;;;;;;4.80;3.57;;;23.90;70.20;23.40;96241.00;;;;5075453;28;20206;-82
2023/07/19 03:23:44;;;;;;;3.30;3.00;;;23.90;70.50;23.40;96260.00;;;;5061740;28;20206;-82
2023/07/19 03:26:12;;;;;;;3.27;2.97;;;23.90;70.40;23.40;96257.00;;;;5086905;28;20242;-82
2023/07/19 03:28:39;;;;;;;3.13;2.73;;;23.90;70.20;23.40;96243.00;;;;5076308;28;20281;-82
2023/07/19 03:31:12;;;;;;;3.10;2.87;;;23.90;70.40;23.40;96241.00;;;;5075124;28;20226;-82
2023/07/19 03:33:40;;;;;;;7.30;3.33;;;23.90;70.50;23.40;96237.00;;;;5082246;28;20230;-82
2023/07/19 03:36:07;;;;;;;3.47;3.13;;;23.90;70.20;23.40;96237.00;;;;5083564;28;20218;-82
2023/07/19 03:38:34;;;;;;;4.53;3.00;;;23.90;70.00;23.40;96236.00;;;;5084673;28;20568;-82
2023/07/19 03:41:10;;;;;;;3.10;2.80;;;23.90;70.10;23.40;96245.00;;;;5090811;28;20208;-82
2023/07/19 03:43:38;;;;;;;5.07;3.20;;;23.80;70.40;23.30;96236.00;;;;5086423;28;20226;-82
2023/07/19 03:46:07;;;;;;;4.53;3.50;;;23.80;70.10;23.30;96233.00;;;;5072216;28;20812;-82
2023/07/19 03:48:37;;;;;;;3.10;2.70;;;23.80;70.10;23.30;96236.00;;;;5094181;28;20228;-82
2023/07/19 03:51:04;;;;;;;3.47;2.90;;;23.80;70.20;23.30;96248.00;;;;5088176;28;20192;-82
2023/07/19 03:53:31;;;;;;;4.20;3.20;;;23.80;70.20;23.30;96234.00;;;;5078009;28;20196;-82
2023/07/19 03:56:01;;;;;;;3.93;3.10;;;23.80;70.20;23.30;96239.00;;;;5084784;28;20217;-82
2023/07/19 03:58:30;;;;;;;3.40;2.83;;;23.80;70.30;23.30;96236.00;;;;5080864;28;20274;-82
2023/07/19 04:00:59;;;;;;;4.53;3.10;;;23.80;70.30;23.30;96246.00;;;;5074861;28;20202;-82
2023/07/19 04:03:28;;;;;;;3.53;3.23;;;23.80;70.30;23.20;96238.00;;;;5075396;28;20233;-82
2023/07/19 04:05:57;;;;;;;3.50;3.17;;;23.80;70.30;23.20;96222.00;;;;5074442;28;20285;-82
2023/07/19 04:08:25;;;;;;;5.70;3.20;;;23.70;70.20;23.20;96237.00;;;;5073391;28;20599;-82
2023/07/19 04:10:52;;;;;;;3.40;3.10;;;23.70;70.30;23.20;96228.00;;;;5091599;28;20716;-82
2023/07/19 04:13:20;;;;;;;4.73;2.97;;;23.70;70.40;23.20;96227.00;;;;5086085;28;20212;-82
2023/07/19 04:15:49;;;;;;;3.93;2.90;;;23.70;70.50;23.20;96217.00;;;;5084571;28;20667;-84
2023/07/19 04:18:16;;;;;;;3.43;3.10;;;23.70;70.50;23.20;96227.00;;;;5073253;28;20660;-83
2023/07/19 04:20:43;;;;;;;3.50;2.87;;;23.70;70.50;23.20;96212.00;;;;5074513;28;20203;-83
2023/07/19 04:23:12;;;;;;;3.80;3.10;;;23.70;70.50;23.20;96219.00;;;;5069518;28;20214;-83
2023/07/19 04:25:39;;;;;;;5.37;3.03;;;23.70;70.50;23.20;96212.00;;;;5069372;28;20202;-82
2023/07/19 04:28:06;;;;;;;3.80;3.03;;;23.70;70.60;23.20;96211.00;;;;5072707;28;20218;-82
2023/07/19 04:30:34;;;;;;;3.07;2.73;;;23.70;70.60;23.10;96210.00;;;;5073692;28;20219;-82
2023/07/19 04:33:04;;;;;;;4.80;3.20;;;23.70;70.70;23.20;96209.00;;;;5070858;28;20315;-82
2023/07/19 04:35:31;;;;;;;4.10;3.30;;;23.70;70.80;23.10;96213.00;;;;5075857;28;20234;-82
2023/07/19 04:37:59;;;;;;;5.17;2.93;;;23.70;70.80;23.10;96229.00;;;;5085437;28;20221;-82
2023/07/19 04:40:26;;;;;;;4.70;2.90;;;23.70;71.70;23.20;96231.00;;;;5083471;28;20207;-82
2023/07/19 04:42:53;;;;;;;3.80;2.90;;;23.70;71.00;23.20;96236.00;;;;5084466;28;20316;-82
2023/07/19 04:45:22;;;;;;;3.23;2.70;;;23.70;71.20;23.20;96247.00;;;;5083322;28;20778;-82
2023/07/19 04:47:49;;;;;;;4.20;3.17;;;23.70;71.50;23.20;96230.00;;;;5083973;28;20290;-78
2023/07/19 04:50:18;;;;;;;5.97;3.20;;;23.70;71.60;23.20;96234.00;;;;5087978;28;20658;-79
2023/07/19 04:52:45;;;;;;;4.73;2.90;;;23.70;71.80;23.30;96234.00;;;;5080813;28;20207;-79
2023/07/19 04:55:13;;;;;;;4.87;3.40;;;23.70;71.80;23.30;96247.00;;;;5080890;28;20221;-80
2023/07/19 04:57:41;;;;;;;3.57;3.00;;;23.70;71.90;23.30;96235.00;;;;5084740;28;20214;-79
2023/07/19 05:00:11;;;;;;;4.50;3.70;;;23.80;72.00;23.30;96244.00;;;;5073225;28;20198;-81
2023/07/19 05:02:39;;;;;;;4.70;3.43;;;23.80;71.90;23.40;96248.00;;;;5080804;28;20279;-82
2023/07/19 05:05:12;;;;;;;4.10;2.70;;;23.80;72.00;23.40;96247.00;;;;5089202;28;20578;-84
2023/07/19 05:07:40;;;;;;;5.00;3.40;;;23.80;72.40;23.50;96247.00;;;;5071132;28;20210;-84
2023/07/19 05:10:09;;;;;;;5.47;2.80;;;23.90;72.40;23.50;96253.00;;;;5068761;28;20195;-84
2023/07/19 05:12:37;;;;;;;3.50;2.97;;;23.90;72.70;23.50;96248.00;;;;5081474;28;20230;-84
2023/07/19 05:15:05;;;;;;;6.43;3.17;;;24.00;72.80;23.60;96251.00;;;;5078120;28;20206;-82
2023/07/19 05:17:32;;;;;;;4.60;2.83;;;24.00;72.90;23.70;96253.00;;;;5085675;28;20222;-84
2023/07/19 05:19:59;;;;;;;5.30;3.47;;;24.00;73.00;23.70;96251.00;;;;5087897;28;20199;-83
2023/07/19 05:22:28;;;;;;;5.13;3.10;;;24.10;73.10;23.80;96254.00;;;;5079104;28;20375;-83
2023/07/19 05:24:57;;;;;;;3.43;3.13;;;24.10;72.80;23.80;96264.00;;;;5082302;28;20200;-84
2023/07/19 05:27:25;;;;;;;5.87;3.30;;;24.20;72.90;23.90;96266.00;;;;5075069;28;20223;-83
2023/07/19 05:29:52;;;;;;;3.87;3.13;;;24.20;72.60;23.90;96279.00;;;;5079553;28;20655;-83
2023/07/19 05:32:20;;;;;;;4.70;3.00;;;24.30;72.70;24.00;96276.00;;;;5058945;28;20219;-85
2023/07/19 05:34:47;;;;;;;3.30;2.83;;;24.30;72.70;24.00;96279.00;;;;5080745;28;20278;-84
2023/07/19 05:37:14;;;;;;;5.33;2.83;;;24.40;72.60;24.10;96270.00;;;;5080012;28;20211;-83
2023/07/19 05:39:41;;;;;;;4.03;2.73;;;24.40;72.60;24.20;96283.00;;;;5080638;28;20287;-83
2023/07/19 05:42:10;;;;;;;4.67;3.17;;;24.50;72.70;24.20;96284.00;;;;5072102;28;20207;-86
2023/07/19 05:44:37;;;;;;;6.73;2.87;;;24.50;72.50;24.30;96287.00;;;;5068761;28;20276;-84
2023/07/19 05:47:06;;;;;;;5.07;2.80;;;24.60;72.10;24.30;96291.00;;;;5060666;28;20879;-84
2023/07/19 05:49:33;;;;;;;6.00;3.07;;;24.60;72.10;24.40;96287.00;;;;5057834;28;20635;-83
2023/07/19 05:52:00;;;;;;;4.53;2.90;;;24.70;72.20;24.40;96291.00;;;;5074323;28;20219;-85
2023/07/19 05:54:27;;;;;;;4.53;3.00;;;24.70;72.10;24.50;96287.00;;;;5080126;28;20291;-83
2023/07/19 05:56:54;;;;;;;3.70;2.97;;;24.80;71.60;24.50;96284.00;;;;5076628;28;20215;-84
2023/07/19 05:59:23;;;;;;;2.90;2.57;;;24.80;71.30;24.50;96281.00;;;;5072465;28;20703;-83
2023/07/19 06:01:50;;;;;;;4.70;2.77;;;24.90;71.20;24.60;96276.00;;;;5073250;28;20290;-84
2023/07/19 06:04:18;;;;;;;4.17;3.00;;;24.90;71.20;24.70;96269.00;;;;5070570;28;20245;-82
2023/07/19 06:06:46;;;;;;;5.03;3.17;;;25.00;71.40;24.70;96269.00;;;;5076677;28;20284;-84
2023/07/19 06:09:13;;;;;;;3.50;2.97;;;25.00;71.50;24.70;96264.00;;;;5078265;28;20330;-82
2023/07/19 06:11:40;;;;;;;6.10;2.90;;;25.10;71.30;24.80;96258.00;;;;5074235;28;20204;-84
2023/07/19 06:14:07;;;;;;;4.53;2.87;;;25.10;71.90;24.80;96263.00;;;;5067291;28;20306;-84
2023/07/19 06:16:36;;;;;;;4.37;2.70;;;25.10;70.90;24.90;96262.00;;;;5085277;28;20247;-83
2023/07/19 06:19:03;;;;;;;5.27;2.87;;;25.20;70.60;24.90;96266.00;;;;5074394;28;20275;-83
2023/07/19 06:21:31;;;;;;;3.60;2.60;;;25.20;70.70;24.90;96267.00;;;;5076392;28;20195;-83
2023/07/19 06:23:59;;;;;;;4.00;2.70;;;25.30;70.50;24.90;96282.00;;;;5102565;28;20195;-83
2023/07/19 06:26:26;;;;;;;4.73;2.90;;;25.20;70.30;25.00;96282.00;;;;5064991;28;20224;-83
2023/07/19 06:28:53;;;;;;;5.33;2.97;;;25.30;70.10;25.00;96290.00;;;;5073514;28;20290;-83
2023/07/19 06:31:22;;;;;;;4.27;3.33;;;25.30;70.00;25.00;96285.00;;;;5074523;28;20200;-83
2023/07/19 06:33:51;;;;;;;5.40;2.93;;;25.30;69.90;25.10;96294.00;;;;5078510;28;20300;-83
2023/07/19 06:36:18;;;;;;;5.63;3.07;;;25.40;70.00;25.10;96283.00;;;;5071362;28;20581;-83
2023/07/19 06:38:45;;;;;;;7.00;3.17;;;25.40;70.00;25.10;96287.00;;;;5073176;28;20196;-83
2023/07/19 06:41:16;;;;;;;4.73;3.07;;;25.40;70.20;25.20;96283.00;;;;5083061;28;20198;-83
2023/07/19 06:43:43;;;;;;;5.23;2.87;;;25.50;70.00;25.20;96292.00;;;;5072002;28;20661;-83
2023/07/19 06:46:11;;;;;;;5.60;2.83;;;25.50;70.20;25.30;96293.00;;;;5070332;28;20215;-82
2023/07/19 06:48:38;;;;;;;3.70;2.73;;;25.60;70.20;25.40;96289.00;;;;5078851;28;20202;-84
2023/07/19 06:51:06;;;;;;;5.47;3.30;;;25.60;70.90;25.40;96299.00;;;;5069797;28;20188;-83
2023/07/19 06:53:34;;;;;;;3.07;2.50;;;25.70;70.20;25.50;96292.00;;;;5071043;28;20235;-83
2023/07/19 06:56:01;;;;;;;3.47;2.83;;;25.70;69.90;25.50;96288.00;;;;5069918;28;20207;-83
2023/07/19 06:58:29;;;;;;;3.37;3.07;;;25.80;70.00;25.60;96300.00;;;;5065973;28;20212;-83
2023/07/19 07:00:57;;;;;;;4.37;2.93;;;25.80;70.30;25.70;96298.00;;;;5066888;28;20207;-83
2023/07/19 07:03:24;;;;;;;3.17;2.70;;;25.90;70.10;25.70;96304.00;;;;5066516;28;20589;-83
2023/07/19 07:05:51;;;;;;;4.30;2.87;;;25.90;69.90;25.80;96308.00;;;;5071622;28;20230;-83
2023/07/19 07:08:20;;;;;;;5.37;2.90;;;26.00;69.70;25.80;96313.00;;;;5078007;28;20665;-83
2023/07/19 07:10:47;;;;;;;5.30;3.20;;;26.10;69.60;25.90;96305.00;;;;5071473;28;20191;-83
2023/07/19 07:13:14;;;;;;;3.70;2.67;;;26.10;69.70;26.00;96311.00;;;;5069747;28;20230;-83
2023/07/19 07:15:42;;;;;;;2.73;2.53;;;26.20;70.20;26.10;96323.00;;;;5067554;28;20204;-83
2023/07/19 07:18:09;;;;;;;3.07;2.70;;;26.30;69.90;26.20;96322.00;;;;5063932;28;20195;-83
2023/07/19 07:20:37;;;;;;;3.33;2.63;;;26.40;70.00;26.30;96325.00;;;;5067299;28;20620;-84
2023/07/19 07:23:04;;;;;;;3.63;3.33;;;26.50;69.70;26.40;96321.00;;;;5053662;28;20737;-83
2023/07/19 07:25:34;;;;;;;4.28;2.90;;;26.50;69.60;26.50;96321.00;;;;5060995;28;20200;-84
2023/07/19 07:28:02;;;;;;;3.93;3.00;;;26.70;69.90;26.60;96329.00;;;;5066711;28;20196;-83
2023/07/19 07:30:29;;;;;;;3.53;2.90;;;26.80;69.40;26.70;96336.00;;;;5073629;28;20214;-83
2023/07/19 07:32:56;;;;;;;3.47;2.97;;;26.90;69.20;26.90;96336.00;;;;5070406;28;20215;-83
2023/07/19 07:35:23;;;;;;;2.90;2.70;;;27.00;69.20;27.00;96333.00;;;;5073667;28;20222;-84
2023/07/19 07:37:50;;;;;;;5.60;3.35;;;27.10;68.70;27.10;96336.00;;;;5071178;28;20296;-83
2023/07/19 07:40:18;;;;;;;5.93;3.03;;;27.20;68.50;27.20;96334.00;;;;5068455;28;20650;-84
2023/07/19 07:42:46;;;;;;;3.95;3.13;;;27.30;67.40;27.30;96338.00;;;;5070699;28;20279;-84
2023/07/19 07:45:14;;;;;;;4.65;3.10;;;27.40;66.70;27.40;96339.00;;;;5068876;28;20196;-83
2023/07/19 07:47:42;;;;;;;6.75;3.50;;;27.60;65.90;27.60;96332.00;;;;5065613;28;20224;-84
2023/07/19 07:50:10;;;;;;;3.17;2.80;;;27.60;65.70;27.70;96332.00;;;;5069537;28;20218;-83
2023/07/19 07:52:37;;;;;;;3.97;3.05;;;27.80;64.60;27.80;96325.00;;;;5067740;28;20229;-83
2023/07/19 07:55:06;;;;;;;4.53;3.03;;;27.90;63.70;27.90;96333.00;;;;5069485;28;20189;-83
2023/07/19 07:57:34;;;;;;;3.45;2.88;;;28.00;63.00;28.10;96318.00;;;;5062425;28;20652;-83
2023/07/19 08:00:06;;;;;;;3.67;2.90;;;28.10;62.60;28.20;96320.00;;;;5078446;28;20188;-83
2023/07/19 08:02:33;;;;;;;3.83;3.05;;;28.20;62.60;28.30;96316.00;;;;5058558;28;20208;-84
2023/07/19 08:05:00;;;;;;;3.33;2.90;;;28.40;62.10;28.40;96313.00;;;;5072405;28;20204;-84
2023/07/19 08:07:27;;;;;;;3.17;2.80;;;28.50;61.40;28.50;96309.00;;;;5074760;28;20219;-84
2023/07/19 08:09:54;;;;;;;3.78;2.97;;;28.60;60.70;28.70;96314.00;;;;5067088;28;20732;-84
2023/07/19 08:12:22;;;;;;;2.63;2.40;;;28.70;61.00;28.80;96308.00;;;;5070403;28;20199;-84
2023/07/19 08:14:49;;;;;;;3.17;2.60;;;28.90;60.70;28.90;96311.00;;;;5067097;28;20212;-84
2023/07/19 08:17:17;;;;;;;4.80;2.85;;;29.00;60.60;29.10;96307.00;;;;5072374;28;20212;-84
2023/07/19 08:19:45;;;;;;;5.05;2.90;;;29.10;60.20;29.20;96311.00;;;;5069685;28;20192;-84
2023/07/19 08:22:26;;;;;;;3.03;2.72;;;29.20;59.60;29.40;96309.00;;;;5068939;28;20188;-84
2023/07/19 08:24:54;;;;;;;2.70;2.35;;;29.40;57.50;29.50;96311.00;;;;5064681;28;20208;-84
2023/07/19 08:27:21;;;;;;;2.95;2.50;;;29.50;57.70;29.60;96312.00;;;;5069701;28;20224;-84
2023/07/19 08:29:48;;;;;;;2.65;2.25;;;29.60;57.80;29.80;96302.00;;;;5077165;28;20193;-84
2023/07/19 08:32:17;;;;;;;2.75;2.55;;;29.70;57.40;29.90;96302.00;;;;5071809;28;20199;-84
2023/07/19 08:34:45;;;;;;;4.10;3.20;;;29.90;56.40;30.00;96297.00;;;;5072038;28;20227;-85
2023/07/19 08:37:12;;;;;;;2.47;2.25;;;30.00;55.60;30.10;96286.00;;;;5071584;28;20247;-84
2023/07/19 08:39:39;;;;;;;2.20;2.00;;;30.10;55.90;30.20;96286.00;;;;5073372;28;20227;-84
2023/07/19 08:42:07;;;;;;;2.58;2.38;;;30.20;55.60;30.30;96285.00;;;;5071888;28;20196;-85
2023/07/19 08:44:35;;;;;;;2.45;2.13;;;30.30;55.20;30.40;96285.00;;;;5074399;28;20687;-84
2023/07/19 08:47:06;;;;;;;1.98;1.85;;;30.40;55.20;30.60;96281.00;;;;5074831;28;20223;-84
2023/07/19 08:49:37;;;;;;;2.17;1.90;;;30.50;53.40;30.70;96287.00;;;;5064569;28;20214;-85
2023/07/19 08:52:08;;;;;;;2.08;1.88;;;30.60;53.00;30.80;96291.00;;;;5069232;28;20759;-85
2023/07/19 08:54:35;;;;;;;1.55;1.45;;;30.70;52.20;30.80;96294.00;;;;5069574;28;20219;-84
2023/07/19 08:57:05;;;;;;;2.67;2.05;;;30.90;52.40;30.90;96296.00;;;;5069863;28;20235;-85
2023/07/19 08:59:32;;;;;;;2.22;2.05;;;31.00;51.90;31.00;96291.00;;;;5033520;28;20235;-85
2023/07/19 09:02:00;;;;;;;3.25;1.63;;;31.00;51.60;31.10;96312.00;;;;5069343;28;20196;-85
2023/07/19 09:04:30;;;;;;;2.70;2.00;;;31.10;50.80;31.20;96302.00;;;;5071050;28;20669;-86
2023/07/19 09:07:04;;;;;;;1.80;1.60;;;31.20;50.00;31.20;96300.00;;;;5069361;28;20213;-84
2023/07/19 09:09:31;;;;;;;1.95;1.60;;;31.30;49.10;31.30;96299.00;;;;5073163;28;20228;-85
2023/07/19 09:11:58;;;;;;;2.55;1.63;;;31.30;48.90;31.30;96297.00;;;;5071676;28;20283;-85
2023/07/19 09:14:35;;;;;;;1.83;1.73;;;31.40;48.30;31.30;96305.00;;;;5071650;28;20250;-85
2023/07/19 09:17:03;;;;;;;1.90;1.75;;;31.40;47.50;31.40;96310.00;;;;5074485;28;20217;-85
2023/07/19 09:19:30;;;;;;;2.78;1.75;;;31.40;48.90;31.40;96314.00;;;;5065261;28;20279;-86
2023/07/19 09:22:04;;;;;;;2.63;1.70;;;31.50;48.70;31.50;96312.00;;;;5073158;28;20664;-85
2023/07/19 09:24:32;;;;;;;2.05;1.73;;;31.50;48.50;31.60;96319.00;;;;5069266;28;20271;-85
2023/07/19 09:27:00;;;;;;;2.22;1.58;;;31.60;48.70;31.60;96314.00;;;;5068477;28;20718;-86
2023/07/19 09:29:31;;;;;;;1.75;1.60;;;31.70;49.00;31.70;96315.00;;;;5067514;28;20279;-85
2023/07/19 09:32:01;;;;;;;2.13;1.73;;;31.80;47.90;31.80;96313.00;;;;5067154;28;20200;-85
2023/07/19 09:34:36;;;;;;;2.00;1.80;;;31.80;48.30;31.90;96307.00;;;;5069161;28;20700;-86
2023/07/19 09:37:06;;;;;;;1.63;1.52;;;32.00;47.80;32.10;96319.00;;;;5073407;28;20219;-85
2023/07/19 09:39:36;;;;;;;1.92;1.63;;;32.10;47.00;32.20;96311.00;;;;5066234;28;20226;-86
2023/07/19 09:42:05;;;;;;;1.75;1.65;;;32.20;47.00;32.30;96326.00;;;;5075366;28;20196;-86
2023/07/19 09:44:33;;;;;;;1.60;1.50;;;32.40;46.40;32.30;96319.00;;;;5066744;28;20199;-85
2023/07/19 09:47:02;;;;;;;2.55;1.52;;;32.50;46.30;32.40;96319.00;;;;5084628;28;20260;-85
2023/07/19 09:49:30;;;;;;;1.70;1.58;;;32.60;46.40;32.40;96328.00;;;;5086299;28;20282;-86
2023/07/19 09:51:57;;;;;;;1.95;1.50;;;32.60;45.40;32.30;96320.00;;;;5078584;28;20208;-85
2023/07/19 09:54:31;;;;;;;2.88;1.70;;;32.60;45.20;32.30;96317.00;;;;5069560;28;20303;-86
2023/07/19 09:56:59;;;;;;;1.98;1.77;;;32.60;44.10;32.30;96326.00;;;;5085938;28;20966;-84
2023/07/19 09:59:34;;;;;;;2.40;1.60;;;32.60;45.30;32.40;96325.00;;;;5083745;28;20720;-85
2023/07/19 10:02:02;;;;;;;2.22;1.60;;;32.70;45.30;32.60;96322.00;;;;5076687;28;20194;-85
2023/07/19 10:04:37;;;;;;;1.58;1.42;;;32.80;45.90;32.70;96327.00;;;;5075361;28;20195;-86
2023/07/19 10:07:09;;;;;;;1.77;1.67;;;33.00;45.20;32.80;96330.00;;;;5070936;28;20221;-85
2023/07/19 10:09:44;;;;;;;1.52;1.42;;;33.20;44.80;32.80;96324.00;;;;5074333;28;20192;-85
2023/07/19 10:12:25;;;;;;;1.70;1.60;;;33.30;43.80;32.90;96335.00;;;;5073001;28;20278;-85
2023/07/19 10:14:57;;;;;;;1.77;1.67;;;33.40;43.90;33.00;96333.00;;;;5073931;28;20212;-85
2023/07/19 10:17:25;;;;;;;1.92;1.42;;;33.60;44.20;33.10;96330.00;;;;5069657;28;20341;-85
2023/07/19 10:20:12;;;;;;;3.20;1.50;;;33.60;43.70;33.10;96324.00;;;;5054201;28;20199;-86
2023/07/19 10:22:53;;;;;;;2.10;1.60;;;33.70;43.30;33.10;96322.00;;;;5074622;28;20196;-86
2023/07/19 10:25:28;;;;;;;3.40;1.73;;;33.70;42.40;33.10;96328.00;;;;5075749;28;20205;-87
2023/07/19 10:27:58;;;;;;;2.05;1.92;;;33.80;42.10;33.10;96316.00;;;;5072431;28;20204;-86
2023/07/19 10:30:57;;;;;;;1.85;1.73;;;33.80;42.80;33.00;96311.00;;;;5073190;28;20287;-85
2023/07/19 10:33:26;;;;;;;1.75;1.65;;;33.80;42.70;33.10;96303.00;;;;5038328;28;20223;-85
2023/07/19 10:35:57;;;;;;;1.60;1.45;;;33.80;43.80;33.20;96306.00;;;;5057871;28;20728;-86
2023/07/19 10:38:26;;;;;;;3.75;1.70;;;33.90;43.90;33.30;96317.00;;;;5065993;28;20226;-86
2023/07/19 10:40:57;;;;;;;5.95;2.00;;;34.00;44.10;33.50;96315.00;;;;5072046;28;20370;-85
2023/07/19 10:43:25;;;;;;;1.50;1.40;;;34.00;43.10;33.60;96309.00;;;;5082519;28;20266;-86
2023/07/19 10:45:53;;;;;;;1.85;1.60;;;34.10;43.30;33.70;96302.00;;;;5071753;28;20239;-85
2023/07/19 10:48:24;;;;;;;4.32;1.92;;;34.30;43.50;33.80;96297.00;;;;5073668;28;20283;-85
2023/07/19 10:50:52;;;;;;;1.98;1.70;;;34.30;43.00;33.80;96304.00;;;;5073613;28;20196;-85
2023/07/19 10:53:19;;;;;;;2.08;1.90;;;34.30;41.70;33.80;96292.00;;;;5072974;28;20665;-85
2023/07/19 10:55:47;;;;;;;1.50;1.40;;;34.30;42.40;33.80;96292.00;;;;5069076;28;20212;-83
2023/07/19 10:58:17;;;;;;;1.95;1.85;;;34.30;42.20;33.80;96286.00;;;;5085477;28;20283;-83
2023/07/19 11:00:45;;;;;;;2.25;1.67;;;34.30;42.50;33.80;96280.00;;;;5083244;28;20198;-82